Time;durP1;ratioP1;P1;durP2;ratioP2;P2;SDS_P1;SDS_P2;PMS_P1;PMS_P2;Temp;Humidity;BMP_temperature;BMP_pressure;BME280_temperature;BME280_humidity;BME280_pressure;Samples;Min_cycle;Max_cycle;Signal;HPM_P1;HPM_P2
2022/11/26 00:01:44;;;;;;;;;;;;;;;5.28;84.64;101575.19;6155736;23;19913;-31
2022/11/26 00:04:09;;;;;;;;;;;;;;;5.28;84.59;101569.94;6155589;23;19951;-31
2022/11/26 00:06:38;;;;;;;;;;;;;;;5.29;85.40;101579.56;6154248;23;19908;-31
2022/11/26 00:09:04;;;;;;;;;;;;;;;5.29;85.12;101576.06;6154991;23;19967;-31
2022/11/26 00:11:30;;;;;;;;;;;;;;;5.30;85.50;101583.06;6154995;23;19908;-31
2022/11/26 00:13:55;;;;;;;;;;;;;;;5.30;84.97;101575.22;6156150;23;19909;-31
2022/11/26 00:16:20;;;;;;;;;;;;;;;5.30;85.34;101577.84;6155166;23;20244;-31
2022/11/26 00:18:45;;;;;;;;;;;;;;;5.30;85.59;101578.72;6129002;23;19991;-31
2022/11/26 00:21:18;;;;;;;;;;;;;;;5.32;84.94;101581.38;6155018;23;19955;-31
2022/11/26 00:23:43;;;;;;;;;;;;;;;5.33;85.16;101588.41;6154924;23;20402;-31
2022/11/26 00:26:11;;;;;;;;;;;;;;;5.33;85.07;101584.03;6155087;23;19913;-31
2022/11/26 00:28:37;;;;;;;;;;;;;;;5.33;85.23;101589.25;6155635;23;20276;-31
2022/11/26 00:31:06;;;;;;;;;;;;;;;5.34;84.93;101595.41;6155101;23;19909;-31
2022/11/26 00:33:32;;;;;;;;;;;;;;;5.34;84.70;101595.41;6154845;23;19908;-31
2022/11/26 00:36:06;;;;;;;;;;;;;;;5.34;85.12;101595.41;6155148;23;19909;-31
2022/11/26 00:38:31;;;;;;;;;;;;;;;5.35;84.70;101602.38;6129365;23;19913;-31
2022/11/26 00:40:56;;;;;;;;;;;;;;;5.36;85.22;101601.53;6155349;23;19940;-31
2022/11/26 00:43:21;;;;;;;;;;;;;;;5.37;84.63;101603.34;6128814;23;19916;-31
2022/11/26 00:45:49;;;;;;;;;;;;;;;5.37;84.53;101611.19;6128717;23;19991;-31
2022/11/26 00:48:14;;;;;;;;;;;;;;;5.37;84.51;101605.94;6154310;23;20347;-31
2022/11/26 00:50:41;;;;;;;;;;;;;;;5.37;84.45;101606.81;6154879;23;19913;-31
2022/11/26 00:53:07;;;;;;;;;;;;;;;5.38;84.52;101623.41;6129134;23;19920;-31
2022/11/26 00:55:36;;;;;;;;;;;;;;;5.38;84.67;101620.78;6104583;23;19909;-31
2022/11/26 00:58:01;;;;;;;;;;;;;;;5.39;84.95;101619.94;6154863;23;19909;-31
2022/11/26 01:00:28;;;;;;;;;;;;;;;5.39;84.25;101617.31;6128086;23;20360;-31
2022/11/26 01:02:53;;;;;;;;;;;;;;;5.39;84.64;101625.19;6154863;23;19920;-31
2022/11/26 01:05:20;;;;;;;;;;;;;;;5.40;84.66;101626.94;6154247;23;19908;-31
2022/11/26 01:07:45;;;;;;;;;;;;;;;5.39;84.71;101626.06;6154533;23;20235;-31
2022/11/26 01:10:21;;;;;;;;;;;;;;;5.41;83.98;101633.97;6128662;23;19943;-31
2022/11/26 01:12:46;;;;;;;;;;;;;;;5.41;84.80;101626.13;6155611;23;19909;-31
2022/11/26 01:15:11;;;;;;;;;;;;;;;5.41;84.72;101633.97;6154619;23;20325;-31
2022/11/26 01:17:37;;;;;;;;;;;;;;;5.42;84.10;101629.59;6154097;23;19919;-31
2022/11/26 01:20:02;;;;;;;;;;;;;;;5.42;84.41;101640.97;6153890;23;20035;-31
2022/11/26 01:22:27;;;;;;;;;;;;;;;5.43;84.12;101639.25;6154514;23;19913;-31
2022/11/26 01:24:52;;;;;;;;;;;;;;;5.42;84.64;101650.53;6155092;23;19927;-31
2022/11/26 01:27:18;;;;;;;;;;;;;;;5.42;84.37;101645.31;6154082;23;19991;-31
2022/11/26 01:29:44;;;;;;;;;;;;;;;5.42;83.78;101651.44;6155181;23;19917;-31
2022/11/26 01:32:09;;;;;;;;;;;;;;;5.43;84.18;101654.94;6154639;23;20044;-31
2022/11/26 01:34:34;;;;;;;;;;;;;;;5.43;84.05;101649.72;6128858;23;19909;-31
2022/11/26 01:36:59;;;;;;;;;;;;;;;5.43;84.22;101649.72;6128104;23;19952;-31
2022/11/26 01:39:25;;;;;;;;;;;;;;;5.44;84.67;101657.56;6154460;23;19915;-31
2022/11/26 01:41:50;;;;;;;;;;;;;;;5.43;84.54;101649.72;6154866;23;19917;-31
2022/11/26 01:44:22;;;;;;;;;;;;;;;5.41;85.02;101659.22;6154312;23;19971;-31
2022/11/26 01:46:48;;;;;;;;;;;;;;;5.42;84.51;101656.66;6154473;23;20288;-31
2022/11/26 01:49:23;;;;;;;;;;;;;;;5.42;84.58;101659.28;6154130;23;19913;-31
2022/11/26 01:51:55;;;;;;;;;;;;;;;5.41;84.33;101662.75;6128987;23;19915;-31
2022/11/26 01:54:21;;;;;;;;;;;;;;;5.42;84.21;101664.50;6154586;23;20383;-31
2022/11/26 01:56:47;;;;;;;;;;;;;;;5.41;84.53;101664.47;6128313;23;19979;-31
2022/11/26 01:59:21;;;;;;;;;;;;;;;5.42;84.47;101661.00;6127965;23;19908;-31
2022/11/26 02:01:48;;;;;;;;;;;;;;;5.42;84.31;101668.84;6154211;23;19916;-31
2022/11/26 02:04:17;;;;;;;;;;;;;;;5.41;84.13;101665.38;6128678;23;20088;-31
2022/11/26 02:06:43;;;;;;;;;;;;;;;5.39;84.30;101672.28;6154129;23;19909;-31
2022/11/26 02:09:09;;;;;;;;;;;;;;;5.40;84.50;101671.41;6154215;23;19908;-31
2022/11/26 02:11:34;;;;;;;;;;;;;;;5.39;84.54;101677.50;6154302;23;19912;-31
2022/11/26 02:14:01;;;;;;;;;;;;;;;5.38;84.24;101666.13;6154044;23;19912;-31
2022/11/26 02:16:26;;;;;;;;;;;;;;;5.38;84.48;101675.75;6128008;23;19908;-31
2022/11/26 02:19:15;;;;;;;;;;;;;;;5.38;84.59;101675.75;6154113;23;19913;-31
2022/11/26 02:21:40;;;;;;;;;;;;;;;5.37;84.58;101690.53;6126018;23;19912;-31
2022/11/26 02:24:09;;;;;;;;;;;;;;;5.38;84.41;101691.44;6154914;23;20241;-31
2022/11/26 02:26:53;;;;;;;;;;;;;;;5.37;84.56;101689.66;6127301;23;20292;-31
2022/11/26 02:29:18;;;;;;;;;;;;;;;5.37;84.51;101706.22;6153853;23;19936;-31
2022/11/26 02:31:45;;;;;;;;;;;;;;;5.37;84.51;101695.78;6154188;23;19935;-31
2022/11/26 02:34:19;;;;;;;;;;;;;;;5.37;83.90;101706.22;6154323;23;19936;-31
2022/11/26 02:36:52;;;;;;;;;;;;;;;5.36;84.33;101704.47;6127570;23;19915;-31
2022/11/26 02:39:18;;;;;;;;;;;;;;;5.37;84.37;101710.59;6126993;23;19912;-31
2022/11/26 02:41:44;;;;;;;;;;;;;;;5.36;84.28;101711.41;6154141;23;20003;-31
2022/11/26 02:44:10;;;;;;;;;;;;;;;5.36;84.17;101721.88;6103359;23;19916;-31
2022/11/26 02:46:35;;;;;;;;;;;;;;;5.36;83.99;101725.41;6127790;23;19912;-31
2022/11/26 02:49:00;;;;;;;;;;;;;;;5.36;84.29;101729.72;6154026;23;19908;-31
2022/11/26 02:51:25;;;;;;;;;;;;;;;5.37;84.52;101731.53;6127125;23;19915;-31
2022/11/26 02:53:51;;;;;;;;;;;;;;;5.37;83.94;101736.75;6153576;23;19912;-31
2022/11/26 02:56:19;;;;;;;;;;;;;;;5.37;84.28;101734.16;6153964;23;19916;-31
2022/11/26 02:58:44;;;;;;;;;;;;;;;5.37;84.09;101734.16;6127820;23;20275;-31
2022/11/26 03:01:11;;;;;;;;;;;;;;;5.38;84.35;101730.69;6153641;23;19912;-31
2022/11/26 03:03:38;;;;;;;;;;;;;;;5.38;84.49;101738.53;6127469;23;20244;-31
2022/11/26 03:06:04;;;;;;;;;;;;;;;5.38;83.81;101744.63;6127658;23;19913;-31
2022/11/26 03:08:30;;;;;;;;;;;;;;;5.39;84.30;101750.75;6154267;23;19912;-31
2022/11/26 03:10:55;;;;;;;;;;;;;;;5.39;84.14;101745.53;6127554;23;20239;-31
2022/11/26 03:13:20;;;;;;;;;;;;;;;5.39;84.31;101758.59;6153549;23;19909;-31
2022/11/26 03:15:45;;;;;;;;;;;;;;;5.39;84.41;101762.13;6127410;23;19915;-31
2022/11/26 03:18:11;;;;;;;;;;;;;;;5.39;84.60;101761.22;6153538;23;20340;-31
2022/11/26 03:20:36;;;;;;;;;;;;;;;5.40;84.14;101765.59;6153246;23;19913;-31
2022/11/26 03:23:01;;;;;;;;;;;;;;;5.42;84.07;101770.88;6153666;23;20640;-31
2022/11/26 03:25:26;;;;;;;;;;;;;;;5.42;84.35;101765.66;6126842;23;20226;-31
2022/11/26 03:27:51;;;;;;;;;;;;;;;5.42;84.31;101781.34;6153495;23;19975;-31
2022/11/26 03:30:17;;;;;;;;;;;;;;;5.41;84.17;101780.50;6153456;23;19916;-31
2022/11/26 03:32:42;;;;;;;;;;;;;;;5.42;83.76;101787.50;6153870;23;19961;-31
2022/11/26 03:35:07;;;;;;;;;;;;;;;5.44;84.47;101792.78;6153152;23;20241;-31
2022/11/26 03:37:32;;;;;;;;;;;;;;;5.43;84.63;101797.09;6153246;23;19970;-31
2022/11/26 03:39:58;;;;;;;;;;;;;;;5.43;84.03;101801.47;6127787;23;19984;-31
2022/11/26 03:42:23;;;;;;;;;;;;;;;5.42;83.96;101800.56;6127226;23;19916;-31
2022/11/26 03:44:48;;;;;;;;;;;;;;;5.44;85.34;101798.88;6154276;23;19909;-31
2022/11/26 03:47:13;;;;;;;;;;;;;;;5.44;85.39;101796.25;6153421;23;20325;-31
2022/11/26 03:49:39;;;;;;;;;;;;;;;5.44;84.72;101804.09;6153298;23;19963;-31
2022/11/26 03:52:04;;;;;;;;;;;;;;;5.44;84.67;101805.84;6127248;23;19908;-31
2022/11/26 03:54:29;;;;;;;;;;;;;;;5.43;83.94;101799.72;6127620;23;19908;-31
2022/11/26 03:56:54;;;;;;;;;;;;;;;5.45;84.47;101802.38;6127689;23;19909;-31
2022/11/26 03:59:20;;;;;;;;;;;;;;;5.43;84.34;101806.72;6153873;23;19908;-31
2022/11/26 04:01:45;;;;;;;;;;;;;;;5.45;84.00;101813.75;6152983;23;20011;-31
2022/11/26 04:04:10;;;;;;;;;;;;;;;5.44;84.14;101817.19;6153895;23;19915;-31
2022/11/26 04:06:35;;;;;;;;;;;;;;;5.43;84.44;101814.56;6153367;23;19908;-31
2022/11/26 04:09:00;;;;;;;;;;;;;;;5.43;84.74;101815.41;6127780;23;20329;-31
2022/11/26 04:11:26;;;;;;;;;;;;;;;5.42;84.94;101818.88;6153184;23;19913;-31
2022/11/26 04:13:51;;;;;;;;;;;;;;;5.42;84.42;101828.47;6153986;23;19912;-31
2022/11/26 04:16:16;;;;;;;;;;;;;;;5.40;85.10;101820.56;6153021;23;19909;-31
2022/11/26 04:18:42;;;;;;;;;;;;;;;5.38;85.38;101822.25;6127231;23;19935;-30
2022/11/26 04:21:07;;;;;;;;;;;;;;;5.36;85.35;101823.91;6126758;23;19913;-31
2022/11/26 04:23:32;;;;;;;;;;;;;;;5.35;85.68;101832.63;6153479;23;19945;-31
2022/11/26 04:25:57;;;;;;;;;;;;;;;5.34;85.82;101842.19;6153405;23;19908;-31
2022/11/26 04:28:23;;;;;;;;;;;;;;;5.32;85.51;101838.66;6153405;23;19987;-31
2022/11/26 04:30:48;;;;;;;;;;;;;;;5.34;85.36;101842.19;6153043;23;19915;-31
2022/11/26 04:33:13;;;;;;;;;;;;;;;5.35;84.71;101845.69;6152885;23;19912;-31
2022/11/26 04:35:38;;;;;;;;;;;;;;;5.32;85.50;101853.44;6127054;23;19915;-31
2022/11/26 04:38:03;;;;;;;;;;;;;;;5.32;85.16;101856.06;6127007;23;19909;-31
2022/11/26 04:40:29;;;;;;;;;;;;;;;5.32;85.37;101869.16;6128118;23;19915;-31
2022/11/26 04:42:54;;;;;;;;;;;;;;;5.32;84.74;101870.03;6155398;23;20177;-31
2022/11/26 04:45:19;;;;;;;;;;;;;;;5.33;84.92;101876.19;6154605;23;19912;-31
2022/11/26 04:47:44;;;;;;;;;;;;;;;5.32;84.72;101875.28;6154613;23;20049;-31
2022/11/26 04:50:10;;;;;;;;;;;;;;;5.32;84.63;101885.75;6155167;23;19908;-31
2022/11/26 04:52:35;;;;;;;;;;;;;;;5.31;84.42;101888.31;6155220;23;19917;-31
2022/11/26 04:55:00;;;;;;;;;;;;;;;5.30;84.69;101892.63;6155789;23;20336;-31
2022/11/26 04:57:25;;;;;;;;;;;;;;;5.29;84.52;101900.44;6128224;23;19909;-31
2022/11/26 04:59:50;;;;;;;;;;;;;;;5.27;83.62;101903.03;6154362;23;19931;-31
2022/11/26 05:02:16;;;;;;;;;;;;;;;5.26;83.71;101904.75;6155151;23;19912;-31
2022/11/26 05:04:41;;;;;;;;;;;;;;;5.26;83.65;101902.13;6155425;23;20315;-30
2022/11/26 05:07:06;;;;;;;;;;;;;;;5.24;84.14;101903.78;6155037;23;19963;-31
2022/11/26 05:09:31;;;;;;;;;;;;;;;5.23;83.63;101907.25;6154676;23;19995;-31
2022/11/26 05:11:57;;;;;;;;;;;;;;;5.22;83.98;101900.25;6128684;23;19940;-31
2022/11/26 05:14:22;;;;;;;;;;;;;;;5.21;83.71;101903.72;6154991;23;19908;-31
2022/11/26 05:16:47;;;;;;;;;;;;;;;5.21;83.64;101908.03;6154743;23;19908;-31
2022/11/26 05:19:12;;;;;;;;;;;;;;;5.20;84.04;101907.16;6154551;23;20101;-31
2022/11/26 05:21:37;;;;;;;;;;;;;;;5.18;83.38;101914.06;6154659;23;19912;-31
2022/11/26 05:24:03;;;;;;;;;;;;;;;5.18;83.83;101914.06;6155021;23;19912;-31
2022/11/26 05:26:28;;;;;;;;;;;;;;;5.17;83.97;101908.78;6103688;23;19908;-31
2022/11/26 05:28:53;;;;;;;;;;;;;;;5.16;83.55;101915.72;6155197;23;20245;-31
2022/11/26 05:31:19;;;;;;;;;;;;;;;5.14;83.86;101928.75;6154028;23;19908;-31
2022/11/26 05:33:44;;;;;;;;;;;;;;;5.14;83.23;101922.66;6154431;23;19939;-31
2022/11/26 05:36:09;;;;;;;;;;;;;;;5.14;83.55;101927.88;6154890;23;19958;-31
2022/11/26 05:38:34;;;;;;;;;;;;;;;5.11;83.57;101927.78;6154745;23;19930;-31
2022/11/26 05:40:59;;;;;;;;;;;;;;;5.12;83.99;101934.78;6154193;23;19964;-31
2022/11/26 05:43:25;;;;;;;;;;;;;;;5.10;83.63;101934.72;6154327;23;19908;-31
2022/11/26 05:45:50;;;;;;;;;;;;;;;5.09;83.80;101938.19;6154639;23;19909;-31
2022/11/26 05:48:15;;;;;;;;;;;;;;;5.08;83.91;101935.50;6154643;23;19932;-31
2022/11/26 05:50:40;;;;;;;;;;;;;;;5.07;83.71;101937.22;6154271;23;19909;-31
2022/11/26 05:53:06;;;;;;;;;;;;;;;5.06;83.72;101940.69;6154731;23;20047;-31
2022/11/26 05:55:31;;;;;;;;;;;;;;;5.05;83.43;101943.25;6153721;23;20352;-31
2022/11/26 05:57:56;;;;;;;;;;;;;;;5.04;83.68;101949.31;6128343;23;19909;-31
2022/11/26 06:00:22;;;;;;;;;;;;;;;5.03;83.38;101963.25;6128364;23;19909;-31
2022/11/26 06:02:47;;;;;;;;;;;;;;;5.00;83.37;101957.06;6128613;23;19915;-31
2022/11/26 06:05:12;;;;;;;;;;;;;;;4.99;83.48;101962.22;6154650;23;19909;-31
2022/11/26 06:07:38;;;;;;;;;;;;;;;4.96;83.25;101965.63;6152970;23;19912;-31
2022/11/26 06:10:03;;;;;;;;;;;;;;;4.96;83.14;101976.09;6155110;23;19927;-31
2022/11/26 06:12:29;;;;;;;;;;;;;;;4.94;83.36;101966.41;6128212;23;19909;-31
2022/11/26 06:14:54;;;;;;;;;;;;;;;4.92;83.88;101971.59;6154374;23;19909;-31
2022/11/26 06:17:19;;;;;;;;;;;;;;;4.92;83.40;101978.53;6153814;23;19947;-31
2022/11/26 06:19:44;;;;;;;;;;;;;;;4.89;83.71;101979.31;6154377;23;19909;-31
2022/11/26 06:22:10;;;;;;;;;;;;;;;4.88;83.05;101980.16;6128028;23;19919;-31
2022/11/26 06:24:35;;;;;;;;;;;;;;;4.87;83.64;101983.63;6154776;23;19909;-31
2022/11/26 06:27:00;;;;;;;;;;;;;;;4.85;83.79;101982.66;6127667;23;19915;-31
2022/11/26 06:29:25;;;;;;;;;;;;;;;4.84;83.25;101980.91;6154107;23;19908;-31
2022/11/26 06:31:50;;;;;;;;;;;;;;;4.83;83.25;101985.22;6127849;23;19919;-31
2022/11/26 06:34:16;;;;;;;;;;;;;;;4.82;83.27;101987.78;6153761;23;19995;-31
2022/11/26 06:36:41;;;;;;;;;;;;;;;4.81;83.69;101988.63;6154033;23;19966;-31
2022/11/26 06:39:07;;;;;;;;;;;;;;;4.80;83.40;101998.19;6152930;23;19915;-31
2022/11/26 06:41:32;;;;;;;;;;;;;;;4.79;83.35;101998.13;6153628;23;20007;-31
2022/11/26 06:43:58;;;;;;;;;;;;;;;4.78;83.69;102001.56;6153674;23;19936;-31
2022/11/26 06:46:23;;;;;;;;;;;;;;;4.76;83.55;102011.97;6152528;23;19912;-31
2022/11/26 06:48:49;;;;;;;;;;;;;;;4.75;83.26;102000.66;6152963;23;19939;-31
2022/11/26 06:51:14;;;;;;;;;;;;;;;4.75;83.42;102007.59;6127245;23;19913;-31
2022/11/26 06:53:40;;;;;;;;;;;;;;;4.73;83.85;102015.38;6127194;23;19940;-31
2022/11/26 06:56:06;;;;;;;;;;;;;;;4.71;83.99;102014.41;6153230;23;19936;-31
2022/11/26 06:58:32;;;;;;;;;;;;;;;4.71;83.57;102017.03;6153821;23;19936;-31
2022/11/26 07:00:57;;;;;;;;;;;;;;;4.70;83.68;102020.47;6153299;23;19913;-31
2022/11/26 07:03:23;;;;;;;;;;;;;;;4.70;83.68;102022.22;6153241;23;19920;-31
2022/11/26 07:05:48;;;;;;;;;;;;;;;4.70;84.23;102030.06;6154065;23;19966;-31
2022/11/26 07:08:13;;;;;;;;;;;;;;;4.67;83.84;102022.97;6154137;23;19999;-31
2022/11/26 07:10:38;;;;;;;;;;;;;;;4.68;83.67;102030.00;6127540;23;19909;-31
2022/11/26 07:13:04;;;;;;;;;;;;;;;4.67;83.93;102027.34;6126991;23;19913;-31
2022/11/26 07:15:29;;;;;;;;;;;;;;;4.66;83.88;102031.66;6152084;23;19908;-31
2022/11/26 07:17:54;;;;;;;;;;;;;;;4.66;83.61;102039.50;6153077;23;19912;-31
2022/11/26 07:20:19;;;;;;;;;;;;;;;4.66;83.95;102044.72;6153186;23;20333;-31
2022/11/26 07:22:45;;;;;;;;;;;;;;;4.65;83.75;102037.72;6152198;23;19920;-31
2022/11/26 07:25:11;;;;;;;;;;;;;;;4.65;83.77;102034.22;6151591;23;19908;-31
2022/11/26 07:27:36;;;;;;;;;;;;;;;4.64;83.58;102033.34;6127860;23;20423;-31
2022/11/26 07:30:01;;;;;;;;;;;;;;;4.64;83.95;102041.19;6154414;23;20321;-31
2022/11/26 07:32:28;;;;;;;;;;;;;;;4.64;84.38;102046.41;6153787;23;19963;-31
2022/11/26 07:34:55;;;;;;;;;;;;;;;4.63;83.98;102042.00;6151889;23;20375;-31
2022/11/26 07:37:20;;;;;;;;;;;;;;;4.65;83.84;102048.19;6151638;23;19977;-31
2022/11/26 07:39:46;;;;;;;;;;;;;;;4.65;83.78;102042.06;6125744;23;19987;-31
2022/11/26 07:42:12;;;;;;;;;;;;;;;4.66;83.66;102059.50;6154376;23;19913;-31
2022/11/26 07:44:37;;;;;;;;;;;;;;;4.66;84.22;102049.03;6153688;23;19955;-31
2022/11/26 07:47:03;;;;;;;;;;;;;;;4.65;83.68;102058.63;6150871;23;19913;-31
2022/11/26 07:49:28;;;;;;;;;;;;;;;4.67;83.96;102056.94;6153450;23;19909;-31
2022/11/26 07:51:53;;;;;;;;;;;;;;;4.66;83.97;102060.41;6153119;23;19971;-30
2022/11/26 07:54:18;;;;;;;;;;;;;;;4.66;83.89;102060.41;6127049;23;19940;-31
2022/11/26 07:56:44;;;;;;;;;;;;;;;4.66;84.56;102059.50;6152828;23;19913;-33
2022/11/26 07:59:09;;;;;;;;;;;;;;;4.67;84.49;102064.78;6153209;23;19908;-31
2022/11/26 08:01:34;;;;;;;;;;;;;;;4.67;83.83;102067.41;6126971;23;19924;-31
2022/11/26 08:04:02;;;;;;;;;;;;;;;4.67;84.17;102062.19;6102923;23;19932;-30
2022/11/26 08:06:28;;;;;;;;;;;;;;;4.68;84.43;102063.97;6151957;23;19920;-33
2022/11/26 08:08:53;;;;;;;;;;;;;;;4.67;84.72;102067.41;6151976;23;19912;-33
2022/11/26 08:11:22;;;;;;;;;;;;;;;4.68;84.07;102069.22;6154589;23;19916;-30
2022/11/26 08:13:48;;;;;;;;;;;;;;;4.69;84.30;102081.44;6153745;23;19909;-31
2022/11/26 08:16:13;;;;;;;;;;;;;;;4.70;84.81;102074.50;6128563;23;19983;-33
2022/11/26 08:18:39;;;;;;;;;;;;;;;4.69;84.60;102081.44;6155809;23;19912;-33
2022/11/26 08:21:04;;;;;;;;;;;;;;;4.71;84.43;102087.59;6155853;23;20296;-31
2022/11/26 08:23:30;;;;;;;;;;;;;;;4.72;84.47;102092.00;6155554;23;20252;-31
2022/11/26 08:25:55;;;;;;;;;;;;;;;4.73;84.66;102101.63;6154158;23;20351;-31
2022/11/26 08:28:20;;;;;;;;;;;;;;;4.75;84.49;102096.47;6155133;23;19909;-33
2022/11/26 08:30:46;;;;;;;;;;;;;;;4.75;84.60;102093.84;6154437;23;19916;-33
2022/11/26 08:33:11;;;;;;;;;;;;;;;4.79;84.74;102100.97;6156057;23;19909;-31
2022/11/26 08:35:36;;;;;;;;;;;;;;;4.81;84.83;102099.31;6155441;23;19987;-31
2022/11/26 08:38:02;;;;;;;;;;;;;;;4.83;85.16;102100.25;6154739;23;20283;-31
2022/11/26 08:40:27;;;;;;;;;;;;;;;4.85;85.20;102118.63;6155113;23;19913;-31
2022/11/26 08:42:52;;;;;;;;;;;;;;;4.88;85.40;102108.28;6154077;23;19919;-30
2022/11/26 08:45:18;;;;;;;;;;;;;;;4.91;84.76;102118.84;6155678;23;19909;-33
2022/11/26 08:47:43;;;;;;;;;;;;;;;4.94;85.35;102123.31;6155337;23;19913;-32
2022/11/26 08:50:08;;;;;;;;;;;;;;;4.96;84.53;102122.53;6155256;23;19919;-33
2022/11/26 08:52:33;;;;;;;;;;;;;;;4.99;85.04;102127.88;6155788;23;19985;-33
2022/11/26 08:54:59;;;;;;;;;;;;;;;5.01;84.70;102126.19;6154427;23;19909;-33
2022/11/26 08:57:24;;;;;;;;;;;;;;;5.04;84.50;102127.16;6153483;23;19908;-33
2022/11/26 08:59:50;;;;;;;;;;;;;;;5.06;84.22;102123.75;6155074;23;19908;-33
2022/11/26 09:02:16;;;;;;;;;;;;;;;5.09;84.86;102133.44;6153970;23;19968;-33
2022/11/26 09:04:41;;;;;;;;;;;;;;;5.11;84.16;102131.78;6127656;23;19913;-33
2022/11/26 09:07:06;;;;;;;;;;;;;;;5.13;84.56;102135.31;6154254;23;19912;-33
2022/11/26 09:09:31;;;;;;;;;;;;;;;5.16;84.36;102138.06;6154332;23;19908;-33
2022/11/26 09:11:57;;;;;;;;;;;;;;;5.18;84.64;102138.13;6154288;23;19909;-33
2022/11/26 09:14:23;;;;;;;;;;;;;;;5.20;84.76;102142.56;6154797;23;19908;-33
2022/11/26 09:16:49;;;;;;;;;;;;;;;5.23;84.88;102139.16;6154504;23;20292;-33
2022/11/26 09:19:15;;;;;;;;;;;;;;;5.24;84.30;102138.34;6154128;23;19957;-33
2022/11/26 09:21:40;;;;;;;;;;;;;;;5.26;84.62;102145.44;6154564;23;19919;-33
2022/11/26 09:24:05;;;;;;;;;;;;;;;5.29;84.43;102144.63;6154309;23;20245;-33
2022/11/26 09:26:31;;;;;;;;;;;;;;;5.32;84.88;102146.47;6127947;23;19912;-33
2022/11/26 09:28:57;;;;;;;;;;;;;;;5.34;84.65;102150.03;6154111;23;19916;-33
2022/11/26 09:31:23;;;;;;;;;;;;;;;5.35;84.82;102150.09;6154531;23;19909;-33
2022/11/26 09:33:48;;;;;;;;;;;;;;;5.36;84.06;102144.03;6154199;23;19913;-33
2022/11/26 09:36:13;;;;;;;;;;;;;;;5.40;84.52;102145.00;6154983;23;19999;-33
2022/11/26 09:38:39;;;;;;;;;;;;;;;5.42;84.59;102147.69;6154266;23;19905;-33
2022/11/26 09:41:10;;;;;;;;;;;;;;;5.44;84.35;102157.38;6152799;23;19919;-33
2022/11/26 09:43:54;;;;;;;;;;;;;;;5.46;84.11;102154.81;6154609;23;20306;-33
2022/11/26 09:46:23;;;;;;;;;;;;;;;5.49;84.13;102149.69;6154814;23;19955;-33
2022/11/26 09:48:49;;;;;;;;;;;;;;;5.49;84.46;102149.69;6128801;23;19924;-33
2022/11/26 09:51:16;;;;;;;;;;;;;;;5.52;84.39;102155.03;6153828;23;19908;-33
2022/11/26 09:53:44;;;;;;;;;;;;;;;5.54;83.91;102142.91;6154011;23;19971;-33
2022/11/26 09:56:12;;;;;;;;;;;;;;;5.57;84.47;102149.97;6125768;23;19908;-33
2022/11/26 09:59:04;;;;;;;;;;;;;;;5.58;83.85;102149.13;6103182;23;19944;-33
2022/11/26 10:01:30;;;;;;;;;;;;;;;5.61;84.19;102150.13;6146636;23;19999;-33
2022/11/26 10:03:55;;;;;;;;;;;;;;;5.63;83.97;102144.94;6154489;23;19955;-33
2022/11/26 10:06:20;;;;;;;;;;;;;;;5.65;83.98;102146.81;6129013;23;19916;-33
2022/11/26 10:09:02;;;;;;;;;;;;;;;5.66;84.15;102166.00;6154265;23;19908;-33
2022/11/26 10:11:34;;;;;;;;;;;;;;;5.69;83.78;102152.13;6154690;23;19987;-33
2022/11/26 10:14:06;;;;;;;;;;;;;;;5.70;84.22;102144.31;6155054;23;19915;-33
2022/11/26 10:16:34;;;;;;;;;;;;;;;5.73;83.79;102151.38;6128405;23;19931;-33
2022/11/26 10:19:00;;;;;;;;;;;;;;;5.75;83.78;102158.50;6154941;23;19919;-33
2022/11/26 10:21:28;;;;;;;;;;;;;;;5.78;83.73;102163.81;6154708;23;19988;-33
2022/11/26 10:23:56;;;;;;;;;;;;;;;5.81;83.79;102155.19;6128083;23;19913;-33
2022/11/26 10:26:21;;;;;;;;;;;;;;;5.85;83.87;102153.56;6155054;23;19999;-33
2022/11/26 10:28:48;;;;;;;;;;;;;;;5.88;84.22;102151.03;6128215;23;20329;-33
2022/11/26 10:31:20;;;;;;;;;;;;;;;5.93;84.01;102152.09;6128645;23;19916;-33
2022/11/26 10:33:50;;;;;;;;;;;;;;;5.97;83.92;102159.19;6154965;23;20379;-33
2022/11/26 10:36:19;;;;;;;;;;;;;;;6.02;84.29;102152.41;6154547;23;19908;-33
2022/11/26 10:38:44;;;;;;;;;;;;;;;6.10;85.00;102147.44;6103077;23;19913;-33
2022/11/26 10:41:10;;;;;;;;;;;;;;;6.17;85.22;102151.16;6154711;23;19912;-33
2022/11/26 10:43:35;;;;;;;;;;;;;;;6.23;85.55;102140.88;6154988;23;19908;-33
2022/11/26 10:46:00;;;;;;;;;;;;;;;6.31;85.76;102143.78;6154430;23;19908;-33
2022/11/26 10:48:29;;;;;;;;;;;;;;;6.38;86.63;102142.22;6154686;23;19909;-33
2022/11/26 10:50:59;;;;;;;;;;;;;;;6.45;86.77;102148.53;6154576;23;19962;-33
2022/11/26 10:53:25;;;;;;;;;;;;;;;6.51;86.64;102152.25;6127621;23;20337;-33
2022/11/26 10:55:51;;;;;;;;;;;;;;;6.59;86.97;102148.97;6154471;23;19909;-33
2022/11/26 10:58:18;;;;;;;;;;;;;;;6.64;86.67;102152.66;6154541;23;19971;-33
2022/11/26 11:00:49;;;;;;;;;;;;;;;6.70;87.20;102147.56;6154557;23;19984;-33
2022/11/26 11:03:21;;;;;;;;;;;;;;;6.75;86.93;102151.25;6154566;23;19913;-33
2022/11/26 11:05:46;;;;;;;;;;;;;;;6.84;86.85;102149.75;6154347;23;19908;-33
2022/11/26 11:08:27;;;;;;;;;;;;;;;6.88;86.59;102155.13;6153821;23;19909;-32
2022/11/26 11:10:56;;;;;;;;;;;;;;;6.95;86.65;102150.06;6154493;23;19909;-33
2022/11/26 11:13:22;;;;;;;;;;;;;;;7.00;86.98;102146.72;6154766;23;20033;-33
2022/11/26 11:15:48;;;;;;;;;;;;;;;7.05;86.87;102142.53;6154190;23;19909;-33
2022/11/26 11:18:17;;;;;;;;;;;;;;;7.09;86.53;102148.72;6127905;23;19912;-33
2022/11/26 11:20:43;;;;;;;;;;;;;;;7.16;86.52;102152.41;6154691;23;20240;-31
2022/11/26 11:23:09;;;;;;;;;;;;;;;7.20;86.09;102151.66;6153956;23;19908;-31
2022/11/26 11:25:35;;;;;;;;;;;;;;;7.26;86.35;102154.47;6154849;23;19987;-31
2022/11/26 11:28:12;;;;;;;;;;;;;;;7.31;86.57;102159.88;6154293;23;20321;-31
2022/11/26 11:30:38;;;;;;;;;;;;;;;7.37;86.74;102160.00;6128360;23;19958;-31
2022/11/26 11:33:09;;;;;;;;;;;;;;;7.41;86.55;102158.38;6154827;23;19991;-31
2022/11/26 11:35:34;;;;;;;;;;;;;;;7.48;86.64;102165.59;6154416;23;19912;-31
2022/11/26 11:38:00;;;;;;;;;;;;;;;7.52;86.54;102161.28;6153107;23;20221;-31
2022/11/26 11:40:27;;;;;;;;;;;;;;;7.57;86.36;102157.94;6154058;23;19940;-31
2022/11/26 11:43:00;;;;;;;;;;;;;;;7.64;86.32;102159.00;6154291;23;19987;-31
2022/11/26 11:45:51;;;;;;;;;;;;;;;7.70;86.26;102155.66;6128509;23;19960;-31
2022/11/26 11:48:29;;;;;;;;;;;;;;;7.76;86.56;102154.91;6130613;23;20347;-31
2022/11/26 11:50:56;;;;;;;;;;;;;;;7.81;86.10;102155.94;6129627;23;20363;-31
2022/11/26 11:53:21;;;;;;;;;;;;;;;7.86;86.13;102156.03;6130467;23;19909;-31
2022/11/26 11:56:03;;;;;;;;;;;;;;;7.89;85.90;102156.13;6156791;23;19909;-31
2022/11/26 11:58:28;;;;;;;;;;;;;;;7.93;85.54;102153.63;6129981;23;19992;-30
2022/11/26 12:01:02;;;;;;;;;;;;;;;7.96;85.58;102158.97;6156498;23;20640;-31
2022/11/26 12:03:33;;;;;;;;;;;;;;;7.99;85.29;102152.91;6156706;23;19947;-31
2022/11/26 12:06:17;;;;;;;;;;;;;;;8.02;85.14;102163.50;6155609;23;20321;-31
2022/11/26 12:08:45;;;;;;;;;;;;;;;8.04;85.05;102147.78;6156434;23;19908;-31
2022/11/26 12:11:23;;;;;;;;;;;;;;;8.04;84.59;102156.53;6156547;23;19912;-31
2022/11/26 12:13:56;;;;;;;;;;;;;;;8.06;84.09;102160.09;6156429;23;19936;-31
2022/11/26 12:16:22;;;;;;;;;;;;;;;8.09;84.19;102159.28;6129588;23;19959;-31
2022/11/26 12:18:50;;;;;;;;;;;;;;;8.10;83.78;102161.03;6129448;23;19917;-30
2022/11/26 12:21:16;;;;;;;;;;;;;;;8.12;83.88;102167.25;6155853;23;19916;-30
2022/11/26 12:24:02;;;;;;;;;;;;;;;8.14;83.93;102160.28;6156621;23;19909;-30
2022/11/26 12:26:34;;;;;;;;;;;;;;;8.17;84.24;102173.50;6155268;23;19909;-31
2022/11/26 12:29:10;;;;;;;;;;;;;;;8.20;84.24;102156.91;6155535;23;19915;-31
2022/11/26 12:31:35;;;;;;;;;;;;;;;8.24;84.44;102163.16;6156267;23;19987;-31
2022/11/26 12:34:03;;;;;;;;;;;;;;;8.27;84.50;102164.09;6155326;23;19912;-31
2022/11/26 12:36:30;;;;;;;;;;;;;;;8.31;84.70;102158.06;6129571;23;20333;-30
2022/11/26 12:38:58;;;;;;;;;;;;;;;8.34;84.74;102157.28;6129471;23;19912;-30
2022/11/26 12:41:24;;;;;;;;;;;;;;;8.36;84.50;102157.31;6155633;23;19964;-30
2022/11/26 12:43:49;;;;;;;;;;;;;;;8.39;84.10;102159.97;6155775;23;19940;-30
2022/11/26 12:46:18;;;;;;;;;;;;;;;8.41;84.02;102160.94;6155595;23;20160;-31